Time;durP1;ratioP1;P1;durP2;ratioP2;P2;SDS_P1;SDS_P2;PMS_P1;PMS_P2;Temp;Humidity;BMP_temperature;BMP_pressure;BME280_temperature;BME280_humidity;BME280_pressure;Samples;Min_cycle;Max_cycle;Signal;HPM_P1;HPM_P2
2021/03/08 00:00:49;;;;;;;4.63;2.58;;;16.40;98.00;;;;;;5093049;28;20024;-67
2021/03/08 00:03:15;;;;;;;5.10;2.40;;;16.30;98.00;;;;;;5093176;28;20016;-68
2021/03/08 00:05:42;;;;;;;5.30;2.97;;;16.30;98.20;;;;;;5092247;28;20487;-69
2021/03/08 00:08:08;;;;;;;3.28;2.55;;;16.30;98.30;;;;;;5092898;28;20516;-68
2021/03/08 00:10:34;;;;;;;4.28;2.40;;;16.30;98.50;;;;;;5092847;28;20066;-68
2021/03/08 00:13:00;;;;;;;3.25;2.35;;;16.30;98.50;;;;;;5083818;28;20056;-69
2021/03/08 00:15:26;;;;;;;4.53;2.67;;;16.30;98.50;;;;;;5072548;28;20495;-68
2021/03/08 00:17:52;;;;;;;3.58;2.53;;;16.20;98.80;;;;;;5072421;28;20017;-68
2021/03/08 00:20:21;;;;;;;4.15;2.50;;;16.20;98.60;;;;;;5072686;28;20468;-69
2021/03/08 00:22:47;;;;;;;5.63;2.70;;;16.20;98.90;;;;;;5072680;28;20024;-69
2021/03/08 00:25:15;;;;;;;3.00;1.75;;;16.20;99.00;;;;;;5072269;28;20051;-69
2021/03/08 00:27:41;;;;;;;4.28;2.85;;;16.20;99.10;;;;;;5072241;28;20369;-69
2021/03/08 00:30:08;;;;;;;3.58;2.50;;;16.20;99.30;;;;;;5072173;28;20032;-69
2021/03/08 00:32:34;;;;;;;4.07;2.70;;;16.20;99.20;;;;;;5072124;28;20045;-69
2021/03/08 00:35:01;;;;;;;3.75;2.10;;;16.10;99.30;;;;;;5083149;28;20024;-70
2021/03/08 00:37:31;;;;;;;3.70;2.28;;;16.10;99.40;;;;;;5091736;28;20039;-69
2021/03/08 00:40:07;;;;;;;4.13;2.50;;;16.10;99.50;;;;;;5092219;28;20059;-68
2021/03/08 00:42:34;;;;;;;4.05;2.10;;;16.10;99.90;;;;;;5092304;28;20016;-68
2021/03/08 00:45:00;;;;;;;3.28;2.15;;;16.10;99.90;;;;;;5092223;28;20035;-69
2021/03/08 00:47:25;;;;;;;3.85;2.47;;;16.00;99.60;;;;;;5092268;28;20325;-69
2021/03/08 00:49:52;;;;;;;4.03;2.60;;;16.10;99.90;;;;;;5092195;28;20034;-66
2021/03/08 00:52:18;;;;;;;5.25;2.53;;;16.10;99.90;;;;;;5092299;28;20024;-68
2021/03/08 00:54:43;;;;;;;3.85;2.30;;;16.10;99.90;;;;;;5092124;28;20103;-68
2021/03/08 00:57:09;;;;;;;5.32;2.30;;;16.00;99.90;;;;;;5092118;28;20073;-68
2021/03/08 00:59:35;;;;;;;3.88;2.45;;;16.10;99.90;;;;;;5092237;28;20081;-68
2021/03/08 01:02:02;;;;;;;3.10;2.33;;;16.00;99.90;;;;;;5091575;28;20028;-69
2021/03/08 01:04:28;;;;;;;5.10;2.35;;;16.00;99.90;;;;;;5091382;28;20082;-62
2021/03/08 01:06:53;;;;;;;4.88;2.00;;;16.00;99.90;;;;;;5092012;28;20020;-64
2021/03/08 01:09:19;;;;;;;3.80;2.20;;;16.00;99.90;;;;;;5091524;28;20043;-69
2021/03/08 01:11:46;;;;;;;3.40;2.20;;;16.00;99.90;;;;;;5091907;28;20028;-69
2021/03/08 01:14:11;;;;;;;4.15;2.40;;;16.00;99.90;;;;;;5073857;28;20450;-69
2021/03/08 01:16:37;;;;;;;3.92;2.58;;;16.00;99.90;;;;;;5071691;28;20020;-69
2021/03/08 01:19:04;;;;;;;4.65;2.40;;;16.00;99.90;;;;;;5071689;28;20036;-69
2021/03/08 01:21:30;;;;;;;3.63;2.53;;;16.00;99.90;;;;;;5071608;28;20039;-69
2021/03/08 01:23:55;;;;;;;3.50;2.42;;;16.00;99.90;;;;;;5071661;28;20461;-68
2021/03/08 01:26:21;;;;;;;3.40;2.45;;;15.90;99.90;;;;;;5071939;28;20027;-69
2021/03/08 01:28:46;;;;;;;4.53;2.58;;;15.90;99.90;;;;;;5071473;28;20028;-67
2021/03/08 01:31:12;;;;;;;3.10;2.53;;;15.90;99.90;;;;;;5071535;28;20025;-69
2021/03/08 01:33:38;;;;;;;3.58;2.40;;;15.90;99.90;;;;;;5071543;28;20357;-69
2021/03/08 01:36:04;;;;;;;3.28;2.40;;;15.90;99.90;;;;;;5087813;28;20024;-67
2021/03/08 01:38:29;;;;;;;3.75;2.83;;;15.90;99.90;;;;;;5091677;28;20031;-68
2021/03/08 01:40:55;;;;;;;2.95;2.45;;;15.90;99.90;;;;;;5091919;28;20020;-69
2021/03/08 01:43:22;;;;;;;4.90;2.88;;;15.90;99.90;;;;;;5091932;28;20538;-69
2021/03/08 01:45:47;;;;;;;4.53;2.88;;;15.90;99.90;;;;;;5091647;28;20020;-69
2021/03/08 01:48:13;;;;;;;4.60;2.50;;;15.90;99.90;;;;;;5091570;28;20024;-69
2021/03/08 01:50:41;;;;;;;3.30;2.67;;;15.80;99.90;;;;;;5091422;28;20109;-69
2021/03/08 01:53:09;;;;;;;3.85;3.15;;;15.80;99.90;;;;;;5091939;28;20411;-70
2021/03/08 01:55:36;;;;;;;4.90;3.33;;;15.90;99.90;;;;;;5091721;28;20032;-70
2021/03/08 01:58:02;;;;;;;6.38;3.33;;;15.90;99.90;;;;;;5091572;28;20035;-70
2021/03/08 02:00:30;;;;;;;5.35;3.20;;;15.90;99.90;;;;;;5091808;28;20395;-69
2021/03/08 02:02:57;;;;;;;3.67;2.88;;;15.80;99.90;;;;;;5091558;28;20032;-68
2021/03/08 02:05:31;;;;;;;2.90;2.55;;;15.80;99.90;;;;;;5090934;28;20407;-70
2021/03/08 02:07:57;;;;;;;3.75;3.30;;;15.80;99.90;;;;;;5091383;28;20029;-68
2021/03/08 02:10:26;;;;;;;4.05;3.50;;;15.80;99.90;;;;;;5089992;28;20036;-69
2021/03/08 02:13:29;;;;;;;5.88;3.65;;;15.80;99.90;;;;;;5091555;28;20532;-68
2021/03/08 02:16:08;;;;;;;4.85;3.33;;;15.80;99.90;;;;;;5094897;28;20031;-69
2021/03/08 02:18:43;;;;;;;5.90;3.60;;;15.80;99.90;;;;;;5094946;28;20028;-68
2021/03/08 02:21:20;;;;;;;4.60;3.47;;;15.80;99.90;;;;;;5094803;28;20040;-68
2021/03/08 02:24:16;;;;;;;4.45;3.58;;;15.80;99.90;;;;;;5094834;28;20945;-68
2021/03/08 02:26:45;;;;;;;4.00;3.28;;;15.80;99.90;;;;;;5094877;28;20082;-68
2021/03/08 02:29:53;;;;;;;5.45;3.83;;;15.70;99.90;;;;;;5094511;28;20487;-68
2021/03/08 02:32:44;;;;;;;5.97;3.30;;;15.80;99.90;;;;;;5074422;28;20040;-69
2021/03/08 02:35:18;;;;;;;6.10;3.50;;;15.80;99.90;;;;;;5090762;28;20467;-69
2021/03/08 02:38:00;;;;;;;3.85;3.40;;;15.70;99.90;;;;;;5094362;28;20043;-67
2021/03/08 02:40:34;;;;;;;5.22;3.70;;;15.70;99.90;;;;;;5080153;28;20176;-67
2021/03/08 02:43:01;;;;;;;5.20;4.00;;;15.70;99.90;;;;;;5094398;28;20032;-68
2021/03/08 02:45:29;;;;;;;6.60;3.63;;;15.70;99.90;;;;;;5094775;28;20031;-69
2021/03/08 02:47:57;;;;;;;4.47;3.65;;;15.70;99.90;;;;;;5094651;28;20566;-68
2021/03/08 02:50:27;;;;;;;6.22;3.47;;;15.70;99.90;;;;;;5094616;28;20105;-68
2021/03/08 02:53:00;;;;;;;5.68;3.38;;;15.70;99.90;;;;;;5094758;28;20024;-68
2021/03/08 02:55:33;;;;;;;4.45;3.58;;;15.70;99.90;;;;;;5094506;28;20024;-69
2021/03/08 02:58:00;;;;;;;4.60;3.67;;;15.70;99.90;;;;;;5094172;28;20468;-68
2021/03/08 03:00:27;;;;;;;5.30;3.60;;;15.60;99.90;;;;;;5084788;28;20115;-67
2021/03/08 03:02:54;;;;;;;5.13;3.67;;;15.60;99.90;;;;;;5078009;28;20032;-69
2021/03/08 03:05:20;;;;;;;6.30;3.88;;;15.60;99.90;;;;;;5094039;28;20107;-67
2021/03/08 03:07:48;;;;;;;7.45;3.70;;;15.60;99.90;;;;;;5093903;28;20060;-68
2021/03/08 03:10:15;;;;;;;6.63;4.10;;;15.60;99.90;;;;;;5093451;28;20055;-69
2021/03/08 03:12:43;;;;;;;6.43;4.30;;;15.60;99.90;;;;;;5093797;28;20024;-63
2021/03/08 03:15:10;;;;;;;6.03;3.88;;;15.60;99.90;;;;;;5094038;28;20036;-62
2021/03/08 03:17:37;;;;;;;5.13;4.15;;;15.50;99.90;;;;;;5093809;28;20551;-67
2021/03/08 03:20:07;;;;;;;6.10;3.88;;;15.50;99.90;;;;;;5093816;28;20034;-68
2021/03/08 03:22:33;;;;;;;6.25;4.07;;;15.50;99.90;;;;;;5093570;28;20423;-68
2021/03/08 03:25:00;;;;;;;5.18;3.90;;;15.50;99.90;;;;;;5093488;28;20024;-67
2021/03/08 03:27:27;;;;;;;6.32;3.90;;;15.50;99.90;;;;;;5094047;28;20059;-66
2021/03/08 03:29:54;;;;;;;9.00;3.90;;;15.50;99.90;;;;;;5092486;28;20068;-69
2021/03/08 03:32:21;;;;;;;5.47;3.95;;;15.40;99.90;;;;;;5093235;28;20024;-68
2021/03/08 03:34:48;;;;;;;4.47;3.60;;;15.40;99.90;;;;;;5093698;28;20020;-69
2021/03/08 03:37:22;;;;;;;6.30;4.30;;;15.40;99.90;;;;;;5093445;28;20028;-69
2021/03/08 03:39:48;;;;;;;6.38;4.13;;;15.40;99.90;;;;;;5093555;28;20053;-69
2021/03/08 03:42:17;;;;;;;6.22;3.90;;;15.40;99.90;;;;;;5093234;28;20466;-69
2021/03/08 03:44:43;;;;;;;5.05;4.25;;;15.40;99.90;;;;;;5091957;28;20497;-69
2021/03/08 03:49:45;;;;;;;6.28;4.35;;;15.40;99.90;;;;;;5158755;22;20510;-69
2021/03/08 03:52:10;;;;;;;7.47;4.20;;;15.30;99.90;;;;;;5052926;28;20029;-68
2021/03/08 03:54:36;;;;;;;6.15;4.13;;;15.30;99.90;;;;;;5052458;28;20032;-69
2021/03/08 03:57:06;;;;;;;6.03;4.07;;;15.30;99.90;;;;;;5052598;28;20044;-69
2021/03/08 03:59:49;;;;;;;5.18;4.20;;;15.30;99.90;;;;;;5052744;28;20060;-69
2021/03/08 04:02:22;;;;;;;5.32;3.92;;;15.30;99.90;;;;;;5052755;28;20024;-69
2021/03/08 04:04:54;;;;;;;4.10;3.70;;;15.30;99.90;;;;;;5052814;28;20021;-66
2021/03/08 04:07:20;;;;;;;5.38;4.28;;;15.20;99.90;;;;;;5052702;28;20025;-68
2021/03/08 04:09:51;;;;;;;5.15;4.32;;;15.20;99.90;;;;;;5052461;28;20146;-69
2021/03/08 04:12:24;;;;;;;5.32;4.07;;;15.20;99.90;;;;;;5052718;28;20071;-69
2021/03/08 04:14:53;;;;;;;5.57;4.40;;;15.20;99.90;;;;;;5052539;28;20389;-69
2021/03/08 04:17:19;;;;;;;5.28;4.15;;;15.20;99.90;;;;;;5052424;28;20020;-69
2021/03/08 04:19:46;;;;;;;4.88;3.90;;;15.10;99.90;;;;;;5052371;28;20028;-69
2021/03/08 04:22:14;;;;;;;6.72;4.20;;;15.10;99.90;;;;;;5052350;28;20056;-67
2021/03/08 04:24:42;;;;;;;5.00;4.25;;;15.10;99.90;;;;;;5052289;28;20492;-69
2021/03/08 04:27:11;;;;;;;5.00;4.40;;;15.10;99.90;;;;;;5052671;28;20024;-67
2021/03/08 04:29:41;;;;;;;9.52;4.57;;;15.10;99.90;;;;;;5051992;28;20028;-70
2021/03/08 04:32:08;;;;;;;6.53;4.45;;;15.10;99.90;;;;;;5052548;28;20067;-68
2021/03/08 04:34:35;;;;;;;5.82;4.50;;;15.10;99.90;;;;;;5052124;28;20064;-66
2021/03/08 04:37:01;;;;;;;6.90;4.60;;;15.10;99.90;;;;;;5051255;28;20079;-70
2021/03/08 04:39:29;;;;;;;7.25;4.30;;;15.00;99.90;;;;;;5052186;28;20473;-70
2021/03/08 04:41:56;;;;;;;10.27;5.18;;;15.00;99.90;;;;;;5052083;28;20037;-70
2021/03/08 04:44:22;;;;;;;8.55;4.63;;;15.00;99.90;;;;;;5052095;28;20029;-70
2021/03/08 04:46:49;;;;;;;9.82;4.72;;;15.00;99.90;;;;;;5051672;28;20036;-70
2021/03/08 04:49:17;;;;;;;9.60;4.90;;;15.00;99.90;;;;;;5051456;28;20037;-67
2021/03/08 04:51:48;;;;;;;5.88;4.82;;;15.00;99.90;;;;;;5036344;28;20028;-66
2021/03/08 04:54:16;;;;;;;5.95;4.90;;;15.00;99.90;;;;;;5052023;28;20067;-66
2021/03/08 04:56:43;;;;;;;9.75;4.57;;;14.90;99.90;;;;;;5052142;28;20106;-67
2021/03/08 04:59:10;;;;;;;6.28;5.05;;;14.90;99.90;;;;;;5052008;28;20025;-69
2021/03/08 05:01:37;;;;;;;7.75;4.70;;;14.90;99.90;;;;;;5051826;28;20142;-69
2021/03/08 05:04:07;;;;;;;5.85;4.60;;;14.90;99.90;;;;;;5051695;28;20059;-68
2021/03/08 05:06:37;;;;;;;5.82;4.93;;;14.90;99.90;;;;;;5051853;28;20025;-68
2021/03/08 05:09:04;;;;;;;5.20;4.57;;;14.80;99.90;;;;;;5051779;28;20447;-68
2021/03/08 05:11:30;;;;;;;6.40;5.18;;;14.80;99.90;;;;;;5051780;28;20029;-69
2021/03/08 05:13:57;;;;;;;7.38;4.78;;;14.80;99.90;;;;;;5051735;28;20017;-62
2021/03/08 05:16:23;;;;;;;7.10;4.72;;;14.80;99.90;;;;;;5051261;28;20036;-62
2021/03/08 05:18:50;;;;;;;9.00;5.22;;;14.80;99.90;;;;;;5051870;28;20061;-62
2021/03/08 05:21:18;;;;;;;5.97;5.25;;;14.80;99.90;;;;;;5051845;28;20059;-62
2021/03/08 05:23:45;;;;;;;6.57;4.78;;;14.70;99.90;;;;;;5051768;28;20040;-62
2021/03/08 05:26:12;;;;;;;6.63;5.20;;;14.70;99.90;;;;;;5051867;28;20460;-61
2021/03/08 05:28:38;;;;;;;6.45;4.97;;;14.70;99.90;;;;;;5051253;28;20036;-62
2021/03/08 05:31:16;;;;;;;6.40;5.40;;;14.70;99.90;;;;;;5051634;28;20037;-61
2021/03/08 05:33:43;;;;;;;5.80;4.90;;;14.70;99.90;;;;;;5052055;28;20036;-69
2021/03/08 05:36:11;;;;;;;6.82;5.07;;;14.70;99.90;;;;;;5051643;28;20135;-70
2021/03/08 05:38:39;;;;;;;6.43;5.30;;;14.70;99.90;;;;;;5051562;28;20068;-70
2021/03/08 05:41:08;;;;;;;5.95;5.13;;;14.70;99.90;;;;;;5051518;28;20029;-67
2021/03/08 05:43:36;;;;;;;5.97;4.85;;;14.60;99.90;;;;;;5051453;28;20590;-62
2021/03/08 05:46:14;;;;;;;6.18;4.90;;;14.60;99.90;;;;;;5051467;28;20025;-69
2021/03/08 05:49:17;;;;;;;8.10;5.30;;;14.60;99.90;;;;;;5052781;28;20045;-67
2021/03/08 05:52:20;;;;;;;5.75;4.97;;;14.60;99.90;;;;;;5055338;28;20399;-64
2021/03/08 05:55:23;;;;;;;6.25;5.22;;;14.60;99.90;;;;;;5055237;28;20109;-67
2021/03/08 05:58:07;;;;;;;5.72;4.78;;;14.60;99.90;;;;;;5055210;28;20025;-65
2021/03/08 06:01:02;;;;;;;5.97;5.15;;;14.60;99.90;;;;;;5054084;28;20078;-68
2021/03/08 06:03:50;;;;;;;5.43;4.90;;;14.60;99.90;;;;;;5054548;28;20033;-69
2021/03/08 06:07:01;;;;;;;7.13;5.80;;;14.50;99.90;;;;;;5054476;28;20024;-65
2021/03/08 06:09:28;;;;;;;6.30;4.95;;;14.60;99.90;;;;;;5054339;28;20139;-69
2021/03/08 06:11:54;;;;;;;6.57;5.28;;;14.60;99.90;;;;;;5054983;28;20029;-70
2021/03/08 06:14:27;;;;;;;7.45;5.57;;;14.50;99.90;;;;;;5054542;28;20017;-67
2021/03/08 06:16:54;;;;;;;7.40;5.65;;;14.50;99.90;;;;;;5054776;28;20112;-68
2021/03/08 06:19:21;;;;;;;8.30;5.30;;;14.50;99.90;;;;;;5053964;28;20025;-67
2021/03/08 06:21:47;;;;;;;7.55;5.85;;;14.50;99.90;;;;;;5053628;28;20039;-61
2021/03/08 06:24:14;;;;;;;8.10;6.03;;;14.60;99.90;;;;;;5053318;28;20032;-66
2021/03/08 06:26:41;;;;;;;8.18;5.32;;;14.50;99.90;;;;;;5054151;28;20032;-66
2021/03/08 06:29:07;;;;;;;7.75;5.40;;;14.60;99.90;;;;;;5052920;28;20361;-64
2021/03/08 06:31:38;;;;;;;12.05;5.63;;;14.50;99.90;;;;;;5054163;28;20511;-66
2021/03/08 06:34:04;;;;;;;16.02;10.73;;;14.50;99.90;;;;;;5053894;28;20029;-65
2021/03/08 06:36:32;;;;;;;29.05;20.48;;;14.20;97.60;;;;;;5053837;28;20029;-63
2021/03/08 06:38:57;;;;;;;32.95;24.13;;;13.10;94.40;;;;;;5054383;28;20025;-65
2021/03/08 06:41:23;;;;;;;36.15;26.50;;;12.20;93.70;;;;;;5054245;28;20078;-66
2021/03/08 06:43:49;;;;;;;38.58;28.15;;;11.80;92.70;;;;;;5054173;28;20028;-64
2021/03/08 06:46:15;;;;;;;39.55;27.85;;;11.30;92.60;;;;;;5053190;28;20029;-64
2021/03/08 06:48:42;;;;;;;40.80;28.65;;;11.00;92.40;;;;;;5053177;28;20024;-64
2021/03/08 06:51:09;;;;;;;22.23;15.93;;;10.90;93.00;;;;;;5054061;28;20044;-63
2021/03/08 06:53:35;;;;;;;14.85;12.10;;;12.00;94.70;;;;;;5053740;28;20671;-64
2021/03/08 06:56:33;;;;;;;15.00;9.13;;;12.90;93.80;;;;;;5053350;28;20100;-64
2021/03/08 06:59:13;;;;;;;9.68;8.32;;;13.50;93.00;;;;;;5045892;28;20380;-63
2021/03/08 07:01:40;;;;;;;9.27;7.95;;;13.80;92.50;;;;;;5052848;28;20872;-63
2021/03/08 07:04:27;;;;;;;9.77;7.68;;;14.00;92.20;;;;;;5053920;28;20395;-64
2021/03/08 07:07:00;;;;;;;15.02;7.90;;;14.10;91.90;;;;;;5052814;28;20533;-62
2021/03/08 07:09:26;;;;;;;10.43;7.13;;;14.20;92.70;;;;;;5053003;28;20044;-62
2021/03/08 07:12:11;;;;;;;8.80;6.95;;;14.30;92.90;;;;;;5052664;28;20017;-62
2021/03/08 07:14:41;;;;;;;9.43;6.85;;;14.40;93.00;;;;;;5053180;28;20021;-62
2021/03/08 07:17:36;;;;;;;10.13;7.03;;;14.50;92.40;;;;;;5033702;28;20024;-61
2021/03/08 07:20:05;;;;;;;;;;;14.40;92.00;;;;;;5041450;28;20032;-61
2021/03/08 07:22:42;;;;;;;9.45;6.22;;;14.40;92.10;;;;;;5052974;28;20368;-64
2021/03/08 07:25:27;;;;;;;7.07;5.80;;;14.60;92.30;;;;;;5052921;28;20513;-64
2021/03/08 07:28:04;;;;;;;10.27;7.15;;;14.70;92.20;;;;;;5052516;28;20033;-64
2021/03/08 07:30:32;;;;;;;11.95;7.20;;;14.70;92.90;;;;;;5056739;28;20063;-63
2021/03/08 07:33:05;;;;;;;8.52;6.35;;;14.60;92.70;;;;;;5073323;28;20028;-61
2021/03/08 07:35:45;;;;;;;9.95;7.30;;;14.50;93.20;;;;;;5072230;28;20498;-63
2021/03/08 07:38:14;;;;;;;10.52;7.32;;;14.40;93.50;;;;;;5046707;28;20156;-62
2021/03/08 07:40:42;;;;;;;8.45;6.35;;;14.30;93.70;;;;;;5052376;28;20033;-65
2021/03/08 07:43:18;;;;;;;12.55;7.38;;;14.30;94.00;;;;;;5052692;28;20028;-66
2021/03/08 07:45:46;;;;;;;9.85;6.75;;;14.20;94.20;;;;;;5053108;28;20122;-66
2021/03/08 07:48:18;;;;;;;10.27;6.35;;;14.30;94.40;;;;;;5053050;28;20033;-65
2021/03/08 07:50:46;;;;;;;11.05;6.35;;;14.30;94.80;;;;;;5052809;28;20476;-64
2021/03/08 07:53:28;;;;;;;7.97;5.78;;;14.40;94.40;;;;;;5052655;28;20104;-65
2021/03/08 07:55:59;;;;;;;10.02;5.35;;;14.90;92.90;;;;;;5052996;28;20028;-65
2021/03/08 07:58:26;;;;;;;9.98;5.43;;;15.30;92.30;;;;;;5052920;28;20021;-65
2021/03/08 08:00:51;;;;;;;11.15;5.45;;;15.60;91.90;;;;;;5052665;28;20426;-65
2021/03/08 08:03:17;;;;;;;7.38;5.53;;;15.70;91.70;;;;;;5053038;28;20108;-65
2021/03/08 08:05:43;;;;;;;8.90;6.13;;;15.90;91.50;;;;;;5051385;28;20074;-62
2021/03/08 08:08:09;;;;;;;6.50;5.53;;;16.10;91.30;;;;;;5051382;28;20029;-65
2021/03/08 08:10:36;;;;;;;7.85;4.85;;;16.40;91.60;;;;;;5052004;28;20040;-68
2021/03/08 08:13:03;;;;;;;7.43;5.13;;;17.30;91.00;;;;;;5052760;28;20411;-68
2021/03/08 08:15:32;;;;;;;6.50;4.50;;;18.40;90.30;;;;;;5052327;28;20029;-68
2021/03/08 08:18:00;;;;;;;9.30;4.40;;;19.10;89.30;;;;;;5052606;28;20020;-66
2021/03/08 08:20:29;;;;;;;8.23;4.85;;;19.60;88.70;;;;;;5052741;28;20109;-65
2021/03/08 08:22:59;;;;;;;5.22;4.20;;;20.00;88.30;;;;;;5052404;28;20059;-66
2021/03/08 08:25:27;;;;;;;5.03;4.18;;;20.30;87.70;;;;;;5052306;28;20480;-66
2021/03/08 08:27:54;;;;;;;5.45;4.18;;;20.50;87.10;;;;;;5052577;28;20372;-66
2021/03/08 08:30:24;;;;;;;9.50;4.20;;;20.70;86.70;;;;;;5052141;28;20036;-68
2021/03/08 08:32:51;;;;;;;5.78;4.25;;;20.90;86.10;;;;;;5052664;28;20023;-67
2021/03/08 08:35:22;;;;;;;5.07;4.40;;;21.10;85.80;;;;;;5051902;28;20486;-68
2021/03/08 08:38:06;;;;;;;6.40;4.53;;;21.40;85.30;;;;;;5052241;28;20067;-66
2021/03/08 08:40:32;;;;;;;;;;;21.60;84.70;;;;;;5052485;28;20490;-68
2021/03/08 08:43:19;;;;;;;6.03;4.35;;;21.80;84.30;;;;;;5052338;28;19928;-65
2021/03/08 08:45:51;;;;;;;5.05;3.80;;;22.00;84.60;;;;;;5051320;28;20060;-67
2021/03/08 08:48:17;;;;;;;4.78;3.78;;;22.10;83.30;;;;;;5052176;28;20029;-67
2021/03/08 08:50:47;;;;;;;4.38;3.97;;;22.30;83.60;;;;;;5052135;28;20137;-67
2021/03/08 08:53:33;;;;;;;7.55;4.25;;;22.40;82.30;;;;;;5052009;28;20090;-69
2021/03/08 08:55:58;;;;;;;5.95;4.30;;;22.60;82.00;;;;;;5051925;28;20025;-69
2021/03/08 08:58:29;;;;;;;4.80;4.03;;;22.70;81.80;;;;;;5052330;28;20155;-66
2021/03/08 09:01:10;;;;;;;5.57;4.50;;;22.90;82.00;;;;;;5051982;28;20074;-65
2021/03/08 09:04:00;;;;;;;5.80;4.18;;;22.00;86.30;;;;;;5051562;28;20027;-68
2021/03/08 09:06:49;;;;;;;5.07;4.05;;;21.20;90.10;;;;;;5051924;28;20059;-67
2021/03/08 09:09:31;;;;;;;6.15;4.18;;;20.60;90.50;;;;;;5030752;28;20048;-67
2021/03/08 09:12:00;;;;;;;6.35;4.22;;;20.20;91.40;;;;;;5051332;28;20039;-66
2021/03/08 09:14:48;;;;;;;5.68;4.10;;;20.10;92.30;;;;;;5052305;28;20021;-65
2021/03/08 09:17:23;;;;;;;7.68;4.28;;;19.90;92.60;;;;;;5051168;28;20035;-65
2021/03/08 09:19:54;;;;;;;6.75;4.40;;;19.80;92.90;;;;;;5051712;28;20415;-66
2021/03/08 09:22:22;;;;;;;5.57;4.00;;;19.70;93.40;;;;;;5051784;28;20021;-65
2021/03/08 09:25:13;;;;;;;5.50;4.40;;;19.60;93.60;;;;;;5055485;28;20107;-66
2021/03/08 09:27:50;;;;;;;4.47;4.03;;;19.50;93.90;;;;;;5023180;28;20033;-65
2021/03/08 09:30:23;;;;;;;5.15;4.10;;;19.50;94.60;;;;;;5054248;28;20037;-66
2021/03/08 09:32:51;;;;;;;;;;;19.50;94.70;;;;;;5056073;28;20085;-67
2021/03/08 09:35:18;;;;;;;6.63;4.20;;;19.40;94.70;;;;;;5055693;28;19905;-67
2021/03/08 09:37:46;;;;;;;5.90;4.30;;;19.40;95.00;;;;;;5054904;28;20476;-67
2021/03/08 09:40:15;;;;;;;5.57;3.70;;;19.40;95.20;;;;;;5055332;28;20025;-65
2021/03/08 09:42:41;;;;;;;6.15;3.97;;;19.40;95.40;;;;;;5054864;28;20031;-68
2021/03/08 09:45:20;;;;;;;4.45;3.78;;;19.40;95.70;;;;;;5054335;28;20112;-67
2021/03/08 09:47:46;;;;;;;4.80;3.88;;;19.30;95.70;;;;;;5054746;28;20057;-68
2021/03/08 09:50:17;;;;;;;7.45;3.97;;;19.30;96.20;;;;;;5053304;28;20499;-67
2021/03/08 09:52:44;;;;;;;5.45;4.30;;;19.30;95.90;;;;;;5055207;28;20029;-67
2021/03/08 09:55:15;;;;;;;4.78;4.07;;;19.30;96.00;;;;;;5055324;28;20024;-65
2021/03/08 09:57:44;;;;;;;5.43;4.45;;;19.30;96.10;;;;;;5055095;28;20012;-66
2021/03/08 10:00:10;;;;;;;6.85;4.60;;;19.20;96.00;;;;;;5055321;28;20028;-62
2021/03/08 10:02:36;;;;;;;5.57;4.45;;;19.10;95.80;;;;;;5055262;28;20023;-61
2021/03/08 10:05:13;;;;;;;5.00;4.47;;;19.00;95.70;;;;;;5053810;28;20468;-62
2021/03/08 10:07:55;;;;;;;5.60;4.32;;;19.00;95.60;;;;;;5055092;28;20060;-62
2021/03/08 10:10:23;;;;;;;5.90;5.30;;;19.00;95.30;;;;;;5054777;28;20063;-63
2021/03/08 10:13:02;;;;;;;6.15;4.80;;;19.10;95.20;;;;;;5054934;28;20468;-61
2021/03/08 10:15:55;;;;;;;6.68;5.28;;;19.00;94.80;;;;;;5054956;28;20044;-64
2021/03/08 10:18:25;;;;;;;6.00;5.40;;;19.00;94.90;;;;;;5054570;28;20033;-62
2021/03/08 10:20:56;;;;;;;6.93;5.28;;;19.10;94.30;;;;;;5054797;28;20033;-63
2021/03/08 10:23:29;;;;;;;5.85;4.95;;;19.10;94.10;;;;;;5054055;28;20056;-62
2021/03/08 10:26:06;;;;;;;8.30;5.90;;;19.10;93.80;;;;;;5054857;28;20025;-63
2021/03/08 10:28:42;;;;;;;5.20;4.70;;;19.10;93.40;;;;;;5054505;28;20057;-63
2021/03/08 10:31:25;;;;;;;6.35;5.10;;;19.10;93.60;;;;;;5054910;28;20036;-65
2021/03/08 10:33:58;;;;;;;5.77;4.77;;;19.10;93.90;;;;;;5054522;28;20484;-63
2021/03/08 10:36:27;;;;;;;6.70;4.88;;;19.20;93.30;;;;;;5053475;28;20029;-68
2021/03/08 10:38:55;;;;;;;5.00;4.25;;;19.20;93.10;;;;;;5054659;28;20021;-69
2021/03/08 10:41:22;;;;;;;5.75;4.35;;;20.10;92.30;;;;;;5053759;28;20029;-66
2021/03/08 10:43:49;;;;;;;6.45;4.13;;;21.50;91.10;;;;;;5054357;28;20021;-65
2021/03/08 10:46:14;;;;;;;4.88;3.85;;;22.30;90.30;;;;;;5054012;28;20423;-65
2021/03/08 10:48:56;;;;;;;4.68;4.05;;;21.90;91.00;;;;;;5054087;28;20033;-67
2021/03/08 10:51:22;;;;;;;5.38;3.90;;;21.30;91.80;;;;;;5054233;28;20056;-67
2021/03/08 10:53:56;;;;;;;4.75;3.75;;;22.10;91.30;;;;;;5054116;28;20029;-65
2021/03/08 10:56:22;;;;;;;4.22;3.60;;;22.30;91.20;;;;;;5054332;28;20488;-67
2021/03/08 10:58:48;;;;;;;5.00;3.28;;;21.90;91.90;;;;;;5052988;28;20560;-66
2021/03/08 11:01:13;;;;;;;4.93;3.42;;;21.60;92.40;;;;;;5053961;28;20107;-67
2021/03/08 11:03:40;;;;;;;4.10;3.58;;;22.40;92.10;;;;;;5053960;28;20104;-68
2021/03/08 11:06:11;;;;;;;3.90;3.45;;;22.40;92.40;;;;;;5053667;28;20143;-68
2021/03/08 11:08:39;;;;;;;5.03;3.83;;;22.10;92.80;;;;;;5053857;28;20029;-65
2021/03/08 11:11:18;;;;;;;3.80;3.03;;;21.80;93.40;;;;;;5053450;28;20041;-66
2021/03/08 11:13:45;;;;;;;4.35;3.72;;;22.50;92.60;;;;;;5053247;28;20017;-68
2021/03/08 11:16:14;;;;;;;4.05;3.30;;;22.60;93.50;;;;;;5054065;28;20075;-69
2021/03/08 11:18:41;;;;;;;5.38;3.30;;;22.30;94.30;;;;;;5053248;28;20021;-64
2021/03/08 11:21:31;;;;;;;3.50;3.20;;;22.10;94.80;;;;;;5039312;28;20040;-66
2021/03/08 11:24:21;;;;;;;4.18;2.85;;;22.30;93.70;;;;;;5053795;28;20021;-63
2021/03/08 11:27:16;;;;;;;4.30;3.25;;;22.80;93.50;;;;;;5053625;28;20430;-63
2021/03/08 11:29:59;;;;;;;3.80;2.83;;;22.50;93.70;;;;;;5053660;28;20037;-63
2021/03/08 11:32:30;;;;;;;3.67;3.25;;;22.20;93.70;;;;;;5053714;28;20092;-69
2021/03/08 11:34:56;;;;;;;3.53;3.20;;;22.30;94.00;;;;;;5053101;28;20025;-65
2021/03/08 11:37:25;;;;;;;3.03;2.72;;;22.90;92.90;;;;;;5052491;28;20096;-67
2021/03/08 11:39:53;;;;;;;4.78;2.97;;;22.80;93.00;;;;;;5052458;28;20028;-69
2021/03/08 11:42:20;;;;;;;3.13;2.83;;;22.60;93.30;;;;;;5053019;28;20060;-67
2021/03/08 11:44:47;;;;;;;4.45;3.40;;;22.40;92.90;;;;;;5053442;28;20443;-67
2021/03/08 11:47:14;;;;;;;4.30;3.53;;;22.00;91.20;;;;;;5052926;28;20435;-68
2021/03/08 11:49:40;;;;;;;7.15;4.80;;;23.10;89.60;;;;;;5052331;28;20033;-66
2021/03/08 11:52:07;;;;;;;6.28;5.07;;;22.60;83.00;;;;;;5052905;28;20472;-68
2021/03/08 11:54:33;;;;;;;5.03;4.53;;;21.30;81.60;;;;;;5053333;28;20079;-66
2021/03/08 11:57:00;;;;;;;5.07;4.32;;;21.40;83.30;;;;;;5052511;28;20029;-69
2021/03/08 11:59:26;;;;;;;4.32;3.92;;;21.50;82.20;;;;;;5053555;28;20029;-64
2021/03/08 12:01:52;;;;;;;7.25;4.18;;;21.60;82.80;;;;;;5060649;28;20147;-68
2021/03/08 12:04:18;;;;;;;4.60;3.90;;;21.10;83.70;;;;;;5062944;28;20103;-69
2021/03/08 12:06:44;;;;;;;5.10;3.58;;;21.10;84.60;;;;;;5067690;28;20059;-67
2021/03/08 12:09:10;;;;;;;4.78;3.72;;;21.20;84.80;;;;;;5064089;28;20086;-63
2021/03/08 12:11:35;;;;;;;4.78;3.63;;;21.40;84.80;;;;;;5053074;28;20021;-65
2021/03/08 12:14:01;;;;;;;4.22;3.42;;;21.50;85.20;;;;;;5052842;28;20492;-64
2021/03/08 12:16:27;;;;;;;5.60;3.80;;;21.60;85.30;;;;;;5052599;28;20114;-63
2021/03/08 12:18:52;;;;;;;3.63;3.17;;;21.70;85.40;;;;;;5051056;28;20045;-65
2021/03/08 12:21:19;;;;;;;6.40;3.78;;;21.70;85.50;;;;;;5053727;28;20025;-64
2021/03/08 12:23:45;;;;;;;4.28;3.30;;;21.80;86.40;;;;;;5065160;28;20025;-64
2021/03/08 12:26:12;;;;;;;4.43;3.00;;;21.80;85.80;;;;;;5052402;28;20104;-63
2021/03/08 12:28:38;;;;;;;3.45;3.15;;;21.80;85.90;;;;;;5050998;28;20423;-63
2021/03/08 12:31:05;;;;;;;3.92;3.30;;;21.90;86.20;;;;;;5051183;28;20033;-64
2021/03/08 12:33:32;;;;;;;4.22;3.58;;;21.90;86.30;;;;;;5051259;28;20017;-63
2021/03/08 12:36:01;;;;;;;4.38;3.40;;;22.00;86.40;;;;;;5051116;28;20063;-63
2021/03/08 12:38:27;;;;;;;3.78;3.28;;;21.90;86.60;;;;;;5051958;28;20029;-63
2021/03/08 12:40:53;;;;;;;4.15;3.40;;;21.90;87.00;;;;;;5050795;28;20092;-64
2021/03/08 12:43:19;;;;;;;4.00;3.20;;;21.90;87.00;;;;;;5050829;28;20021;-64
2021/03/08 12:45:45;;;;;;;4.22;3.30;;;21.90;87.20;;;;;;5050867;28;20017;-63
2021/03/08 12:48:10;;;;;;;3.35;2.92;;;21.90;87.40;;;;;;5050839;28;20384;-63
2021/03/08 12:50:36;;;;;;;4.60;3.42;;;22.00;87.50;;;;;;5050904;28;20040;-63
2021/03/08 12:53:02;;;;;;;4.38;3.00;;;21.90;87.60;;;;;;5052184;28;20044;-63
2021/03/08 12:55:28;;;;;;;3.38;3.08;;;21.90;88.00;;;;;;5051594;28;20039;-63
2021/03/08 12:57:54;;;;;;;4.25;2.90;;;21.90;88.10;;;;;;5050925;28;20014;-66
2021/03/08 13:00:19;;;;;;;3.78;2.90;;;21.80;89.80;;;;;;5051177;28;20036;-68
2021/03/08 13:02:45;;;;;;;5.88;3.30;;;21.90;89.70;;;;;;5050959;28;20029;-66
2021/03/08 13:05:11;;;;;;;6.22;3.10;;;21.90;90.00;;;;;;5050524;28;20035;-67